sensor_id;sensor_type;location;lat;lon;timestamp;P1;durP1;ratioP1;P2;durP2;ratioP2
10031;SDS011;5056;44.272;19.892;2022-11-04T00:01:56;47.73;;;30.50;;
10031;SDS011;5056;44.272;19.892;2022-11-04T00:04:25;40.87;;;29.33;;
10031;SDS011;5056;44.272;19.892;2022-11-04T00:06:53;41.70;;;29.23;;
10031;SDS011;5056;44.272;19.892;2022-11-04T00:09:23;46.80;;;29.60;;
10031;SDS011;5056;44.272;19.892;2022-11-04T00:11:55;40.50;;;27.77;;
10031;SDS011;5056;44.272;19.892;2022-11-04T00:14:39;40.63;;;27.80;;
10031;SDS011;5056;44.272;19.892;2022-11-04T00:17:08;43.57;;;28.97;;
10031;SDS011;5056;44.272;19.892;2022-11-04T00:19:44;43.13;;;30.27;;
10031;SDS011;5056;44.272;19.892;2022-11-04T00:22:31;43.33;;;30.27;;
10031;SDS011;5056;44.272;19.892;2022-11-04T00:25:16;40.17;;;30.63;;
10031;SDS011;5056;44.272;19.892;2022-11-04T00:31:12;43.97;;;30.27;;
10031;SDS011;5056;44.272;19.892;2022-11-04T00:33:57;39.40;;;29.20;;
10031;SDS011;5056;44.272;19.892;2022-11-04T00:36:25;36.23;;;26.67;;
10031;SDS011;5056;44.272;19.892;2022-11-04T00:38:52;44.30;;;27.63;;
10031;SDS011;5056;44.272;19.892;2022-11-04T00:41:19;41.37;;;28.23;;
10031;SDS011;5056;44.272;19.892;2022-11-04T00:43:55;44.83;;;30.17;;
10031;SDS011;5056;44.272;19.892;2022-11-04T00:46:24;39.83;;;27.90;;
10031;SDS011;5056;44.272;19.892;2022-11-04T00:48:51;40.93;;;28.27;;
10031;SDS011;5056;44.272;19.892;2022-11-04T00:51:19;42.60;;;28.33;;
10031;SDS011;5056;44.272;19.892;2022-11-04T00:53:48;41.90;;;28.67;;
10031;SDS011;5056;44.272;19.892;2022-11-04T00:58:51;37.43;;;26.00;;
10031;SDS011;5056;44.272;19.892;2022-11-04T01:01:18;36.17;;;26.47;;
10031;SDS011;5056;44.272;19.892;2022-11-04T01:03:49;37.23;;;26.90;;
10031;SDS011;5056;44.272;19.892;2022-11-04T01:06:17;34.93;;;25.00;;
10031;SDS011;5056;44.272;19.892;2022-11-04T01:08:46;39.07;;;28.57;;
10031;SDS011;5056;44.272;19.892;2022-11-04T01:11:14;41.13;;;28.40;;
10031;SDS011;5056;44.272;19.892;2022-11-04T01:13:41;37.10;;;26.47;;
10031;SDS011;5056;44.272;19.892;2022-11-04T01:16:10;37.73;;;26.80;;
10031;SDS011;5056;44.272;19.892;2022-11-04T01:18:40;37.27;;;27.47;;
10031;SDS011;5056;44.272;19.892;2022-11-04T01:21:23;38.77;;;26.73;;
10031;SDS011;5056;44.272;19.892;2022-11-04T01:23:50;39.77;;;29.03;;
10031;SDS011;5056;44.272;19.892;2022-11-04T01:26:17;33.13;;;25.50;;
10031;SDS011;5056;44.272;19.892;2022-11-04T01:28:45;211.17;;;98.13;;
10031;SDS011;5056;44.272;19.892;2022-11-04T01:31:14;172.20;;;76.33;;
10031;SDS011;5056;44.272;19.892;2022-11-04T01:33:42;72.70;;;40.77;;
10031;SDS011;5056;44.272;19.892;2022-11-04T01:36:11;51.70;;;32.60;;
10031;SDS011;5056;44.272;19.892;2022-11-04T01:38:43;42.23;;;30.00;;
10031;SDS011;5056;44.272;19.892;2022-11-04T01:41:14;37.87;;;27.43;;
10031;SDS011;5056;44.272;19.892;2022-11-04T01:43:44;35.73;;;26.90;;
10031;SDS011;5056;44.272;19.892;2022-11-04T01:46:15;38.40;;;28.53;;
10031;SDS011;5056;44.272;19.892;2022-11-04T01:48:49;42.73;;;30.00;;
10031;SDS011;5056;44.272;19.892;2022-11-04T01:51:22;44.33;;;30.47;;
10031;SDS011;5056;44.272;19.892;2022-11-04T01:53:51;42.63;;;30.30;;
10031;SDS011;5056;44.272;19.892;2022-11-04T01:56:32;40.50;;;28.20;;
10031;SDS011;5056;44.272;19.892;2022-11-04T01:59:02;39.50;;;26.83;;
10031;SDS011;5056;44.272;19.892;2022-11-04T02:01:32;35.10;;;26.37;;
10031;SDS011;5056;44.272;19.892;2022-11-04T02:04:02;40.37;;;26.80;;
10031;SDS011;5056;44.272;19.892;2022-11-04T02:06:44;36.07;;;25.57;;
10031;SDS011;5056;44.272;19.892;2022-11-04T02:09:14;35.23;;;24.97;;
10031;SDS011;5056;44.272;19.892;2022-11-04T02:11:42;34.50;;;24.60;;
10031;SDS011;5056;44.272;19.892;2022-11-04T02:14:28;30.50;;;23.40;;
10031;SDS011;5056;44.272;19.892;2022-11-04T02:16:57;33.60;;;22.47;;
10031;SDS011;5056;44.272;19.892;2022-11-04T02:19:33;31.40;;;23.33;;
10031;SDS011;5056;44.272;19.892;2022-11-04T02:22:14;32.37;;;23.07;;
10031;SDS011;5056;44.272;19.892;2022-11-04T02:27:48;60.47;;;41.67;;
10031;SDS011;5056;44.272;19.892;2022-11-04T02:30:26;65.13;;;45.30;;
10031;SDS011;5056;44.272;19.892;2022-11-04T02:33:09;62.60;;;43.80;;
10031;SDS011;5056;44.272;19.892;2022-11-04T02:35:43;54.30;;;37.10;;
10031;SDS011;5056;44.272;19.892;2022-11-04T02:38:20;50.07;;;32.60;;
10031;SDS011;5056;44.272;19.892;2022-11-04T02:40:59;48.90;;;31.60;;
10031;SDS011;5056;44.272;19.892;2022-11-04T02:43:32;47.40;;;32.27;;
10031;SDS011;5056;44.272;19.892;2022-11-04T02:46:03;40.23;;;28.07;;
10031;SDS011;5056;44.272;19.892;2022-11-04T02:48:34;42.97;;;26.50;;
10031;SDS011;5056;44.272;19.892;2022-11-04T02:51:06;38.23;;;24.80;;
10031;SDS011;5056;44.272;19.892;2022-11-04T02:53:39;42.07;;;27.77;;
10031;SDS011;5056;44.272;19.892;2022-11-04T02:56:07;36.70;;;25.43;;
10031;SDS011;5056;44.272;19.892;2022-11-04T02:58:37;38.60;;;25.37;;
10031;SDS011;5056;44.272;19.892;2022-11-04T03:01:08;35.33;;;25.57;;
10031;SDS011;5056;44.272;19.892;2022-11-04T03:03:39;38.30;;;25.63;;
10031;SDS011;5056;44.272;19.892;2022-11-04T03:06:08;35.03;;;23.93;;
10031;SDS011;5056;44.272;19.892;2022-11-04T03:08:37;36.90;;;25.07;;
10031;SDS011;5056;44.272;19.892;2022-11-04T03:11:06;35.33;;;23.97;;
10031;SDS011;5056;44.272;19.892;2022-11-04T03:13:41;32.77;;;22.97;;
10031;SDS011;5056;44.272;19.892;2022-11-04T03:16:12;31.60;;;21.93;;
10031;SDS011;5056;44.272;19.892;2022-11-04T03:18:43;34.50;;;21.37;;
10031;SDS011;5056;44.272;19.892;2022-11-04T03:21:15;32.87;;;22.10;;
10031;SDS011;5056;44.272;19.892;2022-11-04T03:23:44;27.73;;;20.30;;
10031;SDS011;5056;44.272;19.892;2022-11-04T03:26:11;28.83;;;21.37;;
10031;SDS011;5056;44.272;19.892;2022-11-04T03:28:45;29.80;;;21.13;;
10031;SDS011;5056;44.272;19.892;2022-11-04T03:31:20;30.23;;;21.33;;
10031;SDS011;5056;44.272;19.892;2022-11-04T03:33:49;33.77;;;22.40;;
10031;SDS011;5056;44.272;19.892;2022-11-04T03:36:16;30.73;;;21.20;;
10031;SDS011;5056;44.272;19.892;2022-11-04T03:38:47;29.90;;;21.27;;
10031;SDS011;5056;44.272;19.892;2022-11-04T03:41:16;27.63;;;20.07;;
10031;SDS011;5056;44.272;19.892;2022-11-04T03:43:44;32.03;;;21.20;;
10031;SDS011;5056;44.272;19.892;2022-11-04T03:46:13;31.80;;;20.63;;
10031;SDS011;5056;44.272;19.892;2022-11-04T03:48:42;30.80;;;21.50;;
10031;SDS011;5056;44.272;19.892;2022-11-04T03:51:11;32.77;;;21.40;;
10031;SDS011;5056;44.272;19.892;2022-11-04T03:53:38;30.50;;;20.90;;
10031;SDS011;5056;44.272;19.892;2022-11-04T03:56:17;27.87;;;19.20;;
10031;SDS011;5056;44.272;19.892;2022-11-04T03:58:52;28.53;;;19.40;;
10031;SDS011;5056;44.272;19.892;2022-11-04T04:01:29;28.23;;;19.50;;
10031;SDS011;5056;44.272;19.892;2022-11-04T04:04:11;29.70;;;19.80;;
10031;SDS011;5056;44.272;19.892;2022-11-04T04:06:42;31.33;;;20.27;;
10031;SDS011;5056;44.272;19.892;2022-11-04T04:09:11;28.07;;;20.00;;
10031;SDS011;5056;44.272;19.892;2022-11-04T04:11:44;32.13;;;20.23;;
10031;SDS011;5056;44.272;19.892;2022-11-04T04:14:17;35.43;;;21.23;;
10031;SDS011;5056;44.272;19.892;2022-11-04T04:17:00;29.03;;;21.00;;
10031;SDS011;5056;44.272;19.892;2022-11-04T04:19:32;30.03;;;19.43;;
10031;SDS011;5056;44.272;19.892;2022-11-04T04:22:00;27.23;;;18.70;;
10031;SDS011;5056;44.272;19.892;2022-11-04T04:24:30;27.47;;;17.50;;
10031;SDS011;5056;44.272;19.892;2022-11-04T04:27:17;25.77;;;18.47;;
10031;SDS011;5056;44.272;19.892;2022-11-04T04:29:57;30.43;;;18.87;;
10031;SDS011;5056;44.272;19.892;2022-11-04T04:32:28;28.10;;;18.67;;
10031;SDS011;5056;44.272;19.892;2022-11-04T04:35:03;27.70;;;19.67;;
10031;SDS011;5056;44.272;19.892;2022-11-04T04:37:49;29.80;;;19.57;;
10031;SDS011;5056;44.272;19.892;2022-11-04T04:43:30;29.23;;;19.23;;
10031;SDS011;5056;44.272;19.892;2022-11-04T04:46:17;27.73;;;19.03;;
10031;SDS011;5056;44.272;19.892;2022-11-04T04:48:45;32.40;;;20.03;;
10031;SDS011;5056;44.272;19.892;2022-11-04T04:51:13;29.80;;;20.37;;
10031;SDS011;5056;44.272;19.892;2022-11-04T04:53:41;27.07;;;18.70;;
10031;SDS011;5056;44.272;19.892;2022-11-04T04:56:08;28.70;;;19.30;;
10031;SDS011;5056;44.272;19.892;2022-11-04T04:58:35;25.97;;;18.53;;
10031;SDS011;5056;44.272;19.892;2022-11-04T05:01:15;34.33;;;20.13;;
10031;SDS011;5056;44.272;19.892;2022-11-04T05:03:42;39.27;;;23.30;;
10031;SDS011;5056;44.272;19.892;2022-11-04T05:06:16;35.57;;;24.13;;
10031;SDS011;5056;44.272;19.892;2022-11-04T05:08:43;35.43;;;21.33;;
10031;SDS011;5056;44.272;19.892;2022-11-04T05:11:10;36.57;;;24.23;;
10031;SDS011;5056;44.272;19.892;2022-11-04T05:13:37;41.70;;;24.30;;
10031;SDS011;5056;44.272;19.892;2022-11-04T05:16:06;33.63;;;22.53;;
10031;SDS011;5056;44.272;19.892;2022-11-04T05:18:34;32.13;;;21.13;;
10031;SDS011;5056;44.272;19.892;2022-11-04T05:21:03;53.57;;;33.63;;
10031;SDS011;5056;44.272;19.892;2022-11-04T05:23:32;56.80;;;36.23;;
10031;SDS011;5056;44.272;19.892;2022-11-04T05:25:59;54.47;;;38.53;;
10031;SDS011;5056;44.272;19.892;2022-11-04T05:31:49;69.23;;;46.20;;
10031;SDS011;5056;44.272;19.892;2022-11-04T05:34:16;72.13;;;48.30;;
10031;SDS011;5056;44.272;19.892;2022-11-04T05:36:43;69.97;;;46.33;;
10031;SDS011;5056;44.272;19.892;2022-11-04T05:39:15;64.47;;;43.83;;
10031;SDS011;5056;44.272;19.892;2022-11-04T05:44:15;68.43;;;44.50;;
10031;SDS011;5056;44.272;19.892;2022-11-04T05:46:41;72.63;;;47.30;;
10031;SDS011;5056;44.272;19.892;2022-11-04T05:49:09;79.90;;;48.27;;
10031;SDS011;5056;44.272;19.892;2022-11-04T05:51:37;90.27;;;51.10;;
10031;SDS011;5056;44.272;19.892;2022-11-04T05:54:04;91.30;;;50.00;;
10031;SDS011;5056;44.272;19.892;2022-11-04T05:56:35;82.97;;;47.23;;
10031;SDS011;5056;44.272;19.892;2022-11-04T05:59:02;86.73;;;48.00;;
10031;SDS011;5056;44.272;19.892;2022-11-04T06:01:30;80.57;;;48.30;;
10031;SDS011;5056;44.272;19.892;2022-11-04T06:04:02;71.23;;;48.27;;
10031;SDS011;5056;44.272;19.892;2022-11-04T06:06:30;79.17;;;49.73;;
10031;SDS011;5056;44.272;19.892;2022-11-04T06:08:59;80.40;;;49.20;;
10031;SDS011;5056;44.272;19.892;2022-11-04T06:11:26;86.73;;;53.50;;
10031;SDS011;5056;44.272;19.892;2022-11-04T06:13:57;80.97;;;50.97;;
10031;SDS011;5056;44.272;19.892;2022-11-04T06:16:24;88.53;;;53.37;;
10031;SDS011;5056;44.272;19.892;2022-11-04T06:18:52;84.63;;;49.73;;
10031;SDS011;5056;44.272;19.892;2022-11-04T06:21:22;64.40;;;42.60;;
10031;SDS011;5056;44.272;19.892;2022-11-04T06:23:51;58.27;;;40.60;;
10031;SDS011;5056;44.272;19.892;2022-11-04T06:26:21;60.33;;;36.20;;
10031;SDS011;5056;44.272;19.892;2022-11-04T06:28:49;47.57;;;29.90;;
10031;SDS011;5056;44.272;19.892;2022-11-04T06:31:19;40.83;;;28.47;;
10031;SDS011;5056;44.272;19.892;2022-11-04T06:33:52;48.47;;;31.27;;
10031;SDS011;5056;44.272;19.892;2022-11-04T06:36:20;48.83;;;35.27;;
10031;SDS011;5056;44.272;19.892;2022-11-04T06:38:47;101.73;;;55.57;;
10031;SDS011;5056;44.272;19.892;2022-11-04T06:41:24;110.13;;;60.73;;
10031;SDS011;5056;44.272;19.892;2022-11-04T06:43:59;116.87;;;61.83;;
10031;SDS011;5056;44.272;19.892;2022-11-04T06:46:30;103.87;;;55.03;;
10031;SDS011;5056;44.272;19.892;2022-11-04T06:49:00;106.50;;;57.50;;
10031;SDS011;5056;44.272;19.892;2022-11-04T06:51:29;103.60;;;58.83;;
10031;SDS011;5056;44.272;19.892;2022-11-04T06:53:56;109.80;;;60.67;;
10031;SDS011;5056;44.272;19.892;2022-11-04T06:56:23;105.40;;;58.10;;
10031;SDS011;5056;44.272;19.892;2022-11-04T06:58:52;119.07;;;61.67;;
10031;SDS011;5056;44.272;19.892;2022-11-04T07:01:20;123.50;;;68.23;;
10031;SDS011;5056;44.272;19.892;2022-11-04T07:03:50;126.73;;;69.17;;
10031;SDS011;5056;44.272;19.892;2022-11-04T07:06:19;101.23;;;57.33;;
10031;SDS011;5056;44.272;19.892;2022-11-04T07:08:47;117.83;;;65.23;;
10031;SDS011;5056;44.272;19.892;2022-11-04T07:11:15;109.63;;;64.60;;
10031;SDS011;5056;44.272;19.892;2022-11-04T07:13:44;110.25;;;67.05;;
10031;SDS011;5056;44.272;19.892;2022-11-04T07:16:11;101.57;;;62.85;;
10031;SDS011;5056;44.272;19.892;2022-11-04T07:18:38;124.68;;;66.30;;
10031;SDS011;5056;44.272;19.892;2022-11-04T07:21:07;103.50;;;60.42;;
10031;SDS011;5056;44.272;19.892;2022-11-04T07:23:34;114.22;;;66.35;;
10031;SDS011;5056;44.272;19.892;2022-11-04T07:26:02;90.85;;;60.60;;
10031;SDS011;5056;44.272;19.892;2022-11-04T07:28:31;92.88;;;58.03;;
10031;SDS011;5056;44.272;19.892;2022-11-04T07:31:01;85.10;;;57.70;;
10031;SDS011;5056;44.272;19.892;2022-11-04T07:33:29;76.65;;;54.35;;
10031;SDS011;5056;44.272;19.892;2022-11-04T07:35:56;84.80;;;54.78;;
10031;SDS011;5056;44.272;19.892;2022-11-04T07:38:26;102.75;;;62.72;;
10031;SDS011;5056;44.272;19.892;2022-11-04T07:41:01;94.22;;;64.10;;
10031;SDS011;5056;44.272;19.892;2022-11-04T07:46:31;93.20;;;53.50;;
10031;SDS011;5056;44.272;19.892;2022-11-04T07:48:58;76.50;;;48.47;;
10031;SDS011;5056;44.272;19.892;2022-11-04T07:51:26;81.60;;;50.80;;
10031;SDS011;5056;44.272;19.892;2022-11-04T07:53:58;89.50;;;51.27;;
10031;SDS011;5056;44.272;19.892;2022-11-04T07:56:26;81.10;;;51.13;;
10031;SDS011;5056;44.272;19.892;2022-11-04T07:58:53;87.53;;;53.37;;
10031;SDS011;5056;44.272;19.892;2022-11-04T08:01:22;76.13;;;50.13;;
10031;SDS011;5056;44.272;19.892;2022-11-04T08:03:50;68.03;;;47.93;;
10031;SDS011;5056;44.272;19.892;2022-11-04T08:06:19;74.17;;;48.80;;
10031;SDS011;5056;44.272;19.892;2022-11-04T08:08:47;58.33;;;46.43;;
10031;SDS011;5056;44.272;19.892;2022-11-04T08:14:41;61.50;;;46.13;;
10031;SDS011;5056;44.272;19.892;2022-11-04T08:17:08;71.83;;;50.17;;
10031;SDS011;5056;44.272;19.892;2022-11-04T08:19:36;76.67;;;51.80;;
10031;SDS011;5056;44.272;19.892;2022-11-04T08:22:03;78.80;;;50.30;;
10031;SDS011;5056;44.272;19.892;2022-11-04T08:24:35;68.17;;;48.73;;
10031;SDS011;5056;44.272;19.892;2022-11-04T08:27:04;86.70;;;52.10;;
10031;SDS011;5056;44.272;19.892;2022-11-04T08:29:34;77.30;;;52.50;;
10031;SDS011;5056;44.272;19.892;2022-11-04T08:32:04;107.97;;;68.13;;
10031;SDS011;5056;44.272;19.892;2022-11-04T08:34:32;90.47;;;56.63;;
10031;SDS011;5056;44.272;19.892;2022-11-04T08:37:00;75.83;;;50.00;;
10031;SDS011;5056;44.272;19.892;2022-11-04T08:39:29;75.50;;;49.73;;
10031;SDS011;5056;44.272;19.892;2022-11-04T08:41:56;89.17;;;56.13;;
10031;SDS011;5056;44.272;19.892;2022-11-04T08:44:24;73.77;;;52.57;;
10031;SDS011;5056;44.272;19.892;2022-11-04T08:46:51;77.53;;;52.73;;
10031;SDS011;5056;44.272;19.892;2022-11-04T08:49:20;85.97;;;51.80;;
10031;SDS011;5056;44.272;19.892;2022-11-04T08:51:47;97.00;;;61.40;;
10031;SDS011;5056;44.272;19.892;2022-11-04T08:54:20;99.83;;;68.57;;
10031;SDS011;5056;44.272;19.892;2022-11-04T08:56:49;88.73;;;64.10;;
10031;SDS011;5056;44.272;19.892;2022-11-04T08:59:16;85.17;;;59.80;;
10031;SDS011;5056;44.272;19.892;2022-11-04T09:01:43;84.67;;;54.83;;
10031;SDS011;5056;44.272;19.892;2022-11-04T09:04:11;72.22;;;48.20;;
10031;SDS011;5056;44.272;19.892;2022-11-04T09:06:41;57.20;;;38.08;;
10031;SDS011;5056;44.272;19.892;2022-11-04T09:09:11;54.90;;;38.47;;
10031;SDS011;5056;44.272;19.892;2022-11-04T09:11:39;39.97;;;29.17;;
10031;SDS011;5056;44.272;19.892;2022-11-04T09:14:07;33.30;;;25.63;;
10031;SDS011;5056;44.272;19.892;2022-11-04T09:16:36;15.57;;;9.20;;
10031;SDS011;5056;44.272;19.892;2022-11-04T09:19:04;9.95;;;7.88;;
10031;SDS011;5056;44.272;19.892;2022-11-04T09:21:32;9.48;;;6.47;;
10031;SDS011;5056;44.272;19.892;2022-11-04T09:24:02;10.85;;;7.15;;
10031;SDS011;5056;44.272;19.892;2022-11-04T09:26:30;8.93;;;7.32;;
10031;SDS011;5056;44.272;19.892;2022-11-04T09:28:58;10.15;;;6.78;;
10031;SDS011;5056;44.272;19.892;2022-11-04T09:31:26;10.35;;;7.50;;
10031;SDS011;5056;44.272;19.892;2022-11-04T09:33:58;15.10;;;9.18;;
10031;SDS011;5056;44.272;19.892;2022-11-04T09:36:27;20.45;;;13.80;;
10031;SDS011;5056;44.272;19.892;2022-11-04T09:38:57;16.83;;;13.75;;
10031;SDS011;5056;44.272;19.892;2022-11-04T09:41:33;27.42;;;15.48;;
10031;SDS011;5056;44.272;19.892;2022-11-04T09:44:32;13.45;;;10.55;;
10031;SDS011;5056;44.272;19.892;2022-11-04T09:47:06;10.38;;;8.50;;
10031;SDS011;5056;44.272;19.892;2022-11-04T09:49:35;11.07;;;8.20;;
10031;SDS011;5056;44.272;19.892;2022-11-04T09:52:06;10.90;;;7.88;;
10031;SDS011;5056;44.272;19.892;2022-11-04T09:54:40;8.15;;;6.43;;
10031;SDS011;5056;44.272;19.892;2022-11-04T09:57:12;8.50;;;7.30;;
10031;SDS011;5056;44.272;19.892;2022-11-04T09:59:44;9.60;;;6.82;;
10031;SDS011;5056;44.272;19.892;2022-11-04T10:02:19;8.30;;;6.90;;
10031;SDS011;5056;44.272;19.892;2022-11-04T10:04:58;8.13;;;6.68;;
10031;SDS011;5056;44.272;19.892;2022-11-04T10:07:39;9.80;;;6.80;;
10031;SDS011;5056;44.272;19.892;2022-11-04T10:10:14;10.50;;;6.75;;
10031;SDS011;5056;44.272;19.892;2022-11-04T10:15:37;10.45;;;6.32;;
10031;SDS011;5056;44.272;19.892;2022-11-04T10:18:28;8.20;;;6.90;;
10031;SDS011;5056;44.272;19.892;2022-11-04T10:21:06;9.73;;;6.80;;
10031;SDS011;5056;44.272;19.892;2022-11-04T10:23:40;8.50;;;6.32;;
10031;SDS011;5056;44.272;19.892;2022-11-04T10:26:12;13.15;;;7.80;;
10031;SDS011;5056;44.272;19.892;2022-11-04T10:28:45;19.90;;;13.13;;
10031;SDS011;5056;44.272;19.892;2022-11-04T10:31:16;13.27;;;10.23;;
10031;SDS011;5056;44.272;19.892;2022-11-04T10:33:44;18.27;;;11.48;;
10031;SDS011;5056;44.272;19.892;2022-11-04T10:36:14;11.15;;;8.27;;
10031;SDS011;5056;44.272;19.892;2022-11-04T10:38:44;10.10;;;8.23;;
10031;SDS011;5056;44.272;19.892;2022-11-04T10:41:19;14.15;;;9.57;;
10031;SDS011;5056;44.272;19.892;2022-11-04T10:43:53;20.08;;;12.45;;
10031;SDS011;5056;44.272;19.892;2022-11-04T10:46:28;21.20;;;13.35;;
10031;SDS011;5056;44.272;19.892;2022-11-04T10:49:02;17.30;;;12.20;;
10031;SDS011;5056;44.272;19.892;2022-11-04T10:51:36;18.63;;;12.35;;
10031;SDS011;5056;44.272;19.892;2022-11-04T10:54:04;14.68;;;11.55;;
10031;SDS011;5056;44.272;19.892;2022-11-04T10:56:34;16.50;;;10.63;;
10031;SDS011;5056;44.272;19.892;2022-11-04T10:59:11;13.02;;;9.98;;
10031;SDS011;5056;44.272;19.892;2022-11-04T11:04:25;12.13;;;9.90;;
10031;SDS011;5056;44.272;19.892;2022-11-04T11:06:54;20.30;;;11.70;;
10031;SDS011;5056;44.272;19.892;2022-11-04T11:09:24;16.27;;;9.57;;
10031;SDS011;5056;44.272;19.892;2022-11-04T11:11:54;9.70;;;6.95;;
10031;SDS011;5056;44.272;19.892;2022-11-04T11:14:33;9.20;;;6.35;;
10031;SDS011;5056;44.272;19.892;2022-11-04T11:17:16;11.35;;;5.43;;
10031;SDS011;5056;44.272;19.892;2022-11-04T11:19:47;7.72;;;5.57;;
10031;SDS011;5056;44.272;19.892;2022-11-04T11:22:27;6.72;;;5.57;;
10031;SDS011;5056;44.272;19.892;2022-11-04T11:25:20;13.82;;;5.50;;
10031;SDS011;5056;44.272;19.892;2022-11-04T11:27:49;14.40;;;7.13;;
10031;SDS011;5056;44.272;19.892;2022-11-04T11:30:22;10.40;;;6.93;;
10031;SDS011;5056;44.272;19.892;2022-11-04T11:32:51;7.65;;;6.50;;
10031;SDS011;5056;44.272;19.892;2022-11-04T11:35:21;7.82;;;6.15;;
10031;SDS011;5056;44.272;19.892;2022-11-04T11:37:52;10.25;;;7.40;;
10031;SDS011;5056;44.272;19.892;2022-11-04T11:40:34;11.18;;;6.95;;
10031;SDS011;5056;44.272;19.892;2022-11-04T11:43:03;9.60;;;5.38;;
10031;SDS011;5056;44.272;19.892;2022-11-04T11:45:41;11.50;;;6.20;;
10031;SDS011;5056;44.272;19.892;2022-11-04T11:48:26;7.93;;;6.00;;
10031;SDS011;5056;44.272;19.892;2022-11-04T11:50:54;9.13;;;5.40;;
10031;SDS011;5056;44.272;19.892;2022-11-04T11:53:24;11.77;;;5.78;;
10031;SDS011;5056;44.272;19.892;2022-11-04T11:55:56;8.40;;;5.53;;
10031;SDS011;5056;44.272;19.892;2022-11-04T11:58:28;8.13;;;5.15;;
10031;SDS011;5056;44.272;19.892;2022-11-04T12:01:03;9.20;;;5.10;;
10031;SDS011;5056;44.272;19.892;2022-11-04T12:03:34;10.70;;;6.40;;
10031;SDS011;5056;44.272;19.892;2022-11-04T12:06:13;13.40;;;6.50;;
10031;SDS011;5056;44.272;19.892;2022-11-04T12:11:44;14.10;;;7.50;;
10031;SDS011;5056;44.272;19.892;2022-11-04T12:14:18;13.73;;;7.85;;
10031;SDS011;5056;44.272;19.892;2022-11-04T12:16:57;13.40;;;6.88;;
10031;SDS011;5056;44.272;19.892;2022-11-04T12:22:24;9.38;;;7.25;;
10031;SDS011;5056;44.272;19.892;2022-11-04T12:25:01;11.48;;;7.15;;
10031;SDS011;5056;44.272;19.892;2022-11-04T12:27:35;14.38;;;6.72;;
10031;SDS011;5056;44.272;19.892;2022-11-04T12:30:06;12.77;;;6.22;;
10031;SDS011;5056;44.272;19.892;2022-11-04T12:32:52;10.52;;;6.60;;
10031;SDS011;5056;44.272;19.892;2022-11-04T12:35:39;9.98;;;6.65;;
10031;SDS011;5056;44.272;19.892;2022-11-04T12:38:21;13.45;;;6.20;;
10031;SDS011;5056;44.272;19.892;2022-11-04T12:41:00;7.70;;;6.35;;
10031;SDS011;5056;44.272;19.892;2022-11-04T12:43:32;10.63;;;6.75;;
10031;SDS011;5056;44.272;19.892;2022-11-04T12:46:07;14.35;;;7.70;;
10031;SDS011;5056;44.272;19.892;2022-11-04T12:48:42;10.27;;;6.03;;
10031;SDS011;5056;44.272;19.892;2022-11-04T12:51:17;16.25;;;8.00;;
10031;SDS011;5056;44.272;19.892;2022-11-04T12:53:55;11.65;;;6.45;;
10031;SDS011;5056;44.272;19.892;2022-11-04T12:56:32;18.45;;;9.55;;
10031;SDS011;5056;44.272;19.892;2022-11-04T12:59:15;13.18;;;7.90;;
10031;SDS011;5056;44.272;19.892;2022-11-04T13:01:56;17.65;;;9.13;;
10031;SDS011;5056;44.272;19.892;2022-11-04T13:04:29;11.93;;;7.65;;
10031;SDS011;5056;44.272;19.892;2022-11-04T13:06:59;10.85;;;6.85;;
10031;SDS011;5056;44.272;19.892;2022-11-04T13:09:29;11.90;;;7.13;;
10031;SDS011;5056;44.272;19.892;2022-11-04T13:12:02;29.83;;;10.27;;
10031;SDS011;5056;44.272;19.892;2022-11-04T13:14:32;18.42;;;10.63;;
10031;SDS011;5056;44.272;19.892;2022-11-04T13:17:04;19.88;;;10.30;;
10031;SDS011;5056;44.272;19.892;2022-11-04T13:19:35;15.55;;;10.38;;
10031;SDS011;5056;44.272;19.892;2022-11-04T13:22:07;19.83;;;11.20;;
10031;SDS011;5056;44.272;19.892;2022-11-04T13:24:37;17.27;;;10.68;;
10031;SDS011;5056;44.272;19.892;2022-11-04T13:27:08;14.82;;;10.70;;
10031;SDS011;5056;44.272;19.892;2022-11-04T13:29:41;18.83;;;10.70;;
10031;SDS011;5056;44.272;19.892;2022-11-04T13:32:09;15.30;;;11.15;;
10031;SDS011;5056;44.272;19.892;2022-11-04T13:34:45;16.55;;;10.88;;
10031;SDS011;5056;44.272;19.892;2022-11-04T13:37:19;17.77;;;11.18;;
10031;SDS011;5056;44.272;19.892;2022-11-04T13:39:51;26.42;;;13.80;;
10031;SDS011;5056;44.272;19.892;2022-11-04T13:42:26;13.52;;;11.07;;
10031;SDS011;5056;44.272;19.892;2022-11-04T13:45:16;16.10;;;11.02;;
10031;SDS011;5056;44.272;19.892;2022-11-04T13:47:45;21.77;;;12.40;;
10031;SDS011;5056;44.272;19.892;2022-11-04T13:50:35;16.23;;;11.23;;
10031;SDS011;5056;44.272;19.892;2022-11-04T13:53:03;15.82;;;9.93;;
10031;SDS011;5056;44.272;19.892;2022-11-04T13:55:33;18.15;;;12.15;;
10031;SDS011;5056;44.272;19.892;2022-11-04T13:58:14;18.33;;;11.73;;
10031;SDS011;5056;44.272;19.892;2022-11-04T14:00:43;14.00;;;10.60;;
10031;SDS011;5056;44.272;19.892;2022-11-04T14:03:38;17.08;;;11.57;;
10031;SDS011;5056;44.272;19.892;2022-11-04T14:06:22;18.55;;;11.68;;
10031;SDS011;5056;44.272;19.892;2022-11-04T14:09:29;18.77;;;13.07;;
10031;SDS011;5056;44.272;19.892;2022-11-04T14:14:52;18.30;;;13.30;;
10031;SDS011;5056;44.272;19.892;2022-11-04T14:20:28;16.10;;;12.02;;
10031;SDS011;5056;44.272;19.892;2022-11-04T14:23:01;16.27;;;11.85;;
10031;SDS011;5056;44.272;19.892;2022-11-04T14:25:29;18.35;;;12.07;;
10031;SDS011;5056;44.272;19.892;2022-11-04T14:28:01;21.10;;;12.75;;
10031;SDS011;5056;44.272;19.892;2022-11-04T14:30:43;21.23;;;16.23;;
10031;SDS011;5056;44.272;19.892;2022-11-04T14:33:19;26.85;;;19.52;;
10031;SDS011;5056;44.272;19.892;2022-11-04T14:35:49;31.45;;;20.20;;
10031;SDS011;5056;44.272;19.892;2022-11-04T14:38:21;31.80;;;20.77;;
10031;SDS011;5056;44.272;19.892;2022-11-04T14:40:52;35.33;;;22.50;;
10031;SDS011;5056;44.272;19.892;2022-11-04T14:43:39;30.15;;;21.80;;
10031;SDS011;5056;44.272;19.892;2022-11-04T14:46:07;37.42;;;23.98;;
10031;SDS011;5056;44.272;19.892;2022-11-04T14:48:36;34.15;;;25.00;;
10031;SDS011;5056;44.272;19.892;2022-11-04T14:51:16;37.00;;;27.63;;
10031;SDS011;5056;44.272;19.892;2022-11-04T14:53:49;45.72;;;28.67;;
10031;SDS011;5056;44.272;19.892;2022-11-04T14:56:19;41.45;;;27.40;;
10031;SDS011;5056;44.272;19.892;2022-11-04T14:58:51;41.35;;;26.77;;
10031;SDS011;5056;44.272;19.892;2022-11-04T15:01:21;45.25;;;27.08;;
10031;SDS011;5056;44.272;19.892;2022-11-04T15:03:49;41.13;;;26.77;;
10031;SDS011;5056;44.272;19.892;2022-11-04T15:06:22;35.58;;;25.83;;
10031;SDS011;5056;44.272;19.892;2022-11-04T15:08:52;48.03;;;31.20;;
10031;SDS011;5056;44.272;19.892;2022-11-04T15:11:20;38.33;;;30.40;;
10031;SDS011;5056;44.272;19.892;2022-11-04T15:14:03;59.45;;;41.60;;
10031;SDS011;5056;44.272;19.892;2022-11-04T15:16:41;57.28;;;43.10;;
10031;SDS011;5056;44.272;19.892;2022-11-04T15:19:09;56.47;;;43.00;;
10031;SDS011;5056;44.272;19.892;2022-11-04T15:21:38;67.68;;;50.08;;
10031;SDS011;5056;44.272;19.892;2022-11-04T15:26:42;109.55;;;66.25;;
10031;SDS011;5056;44.272;19.892;2022-11-04T15:29:10;65.20;;;49.95;;
10031;SDS011;5056;44.272;19.892;2022-11-04T15:31:39;30.60;;;23.48;;
10031;SDS011;5056;44.272;19.892;2022-11-04T15:34:17;52.25;;;45.55;;
10031;SDS011;5056;44.272;19.892;2022-11-04T15:36:45;48.20;;;36.50;;